createdAt,value
2022-08-07T04:01:22.420Z,13.69
2022-08-07T04:03:55.023Z,13.74
2022-08-07T04:06:37.402Z,13.84
2022-08-07T04:09:16.184Z,13.95
2022-08-07T04:12:25.795Z,14.04
2022-08-07T04:14:43.572Z,14.12
2022-08-07T04:18:11.187Z,14.20
2022-08-07T04:20:11.208Z,14.28
2022-08-07T04:22:41.336Z,14.34
2022-08-07T04:25:23.652Z,14.41
2022-08-07T04:28:00.687Z,14.47
2022-08-07T04:30:35.775Z,14.57
2022-08-07T04:33:25.802Z,14.67
2022-08-07T04:35:54.479Z,14.74
2022-08-07T04:38:29.077Z,14.82
2022-08-07T04:40:58.154Z,14.91
2022-08-07T04:44:10.578Z,14.97
2022-08-07T04:47:04.116Z,15.11
2022-08-07T04:49:57.789Z,15.41
2022-08-07T04:52:51.325Z,15.86
2022-08-07T04:58:10.697Z,16.05
2022-08-07T04:59:07.755Z,16.14
2022-08-07T05:01:45.199Z,16.69
2022-08-07T05:04:47.233Z,17.52
2022-08-07T05:07:36.803Z,17.80
2022-08-07T05:10:32.872Z,17.81
2022-08-07T05:14:53.823Z,17.67
2022-08-07T05:16:04.405Z,18.08
2022-08-07T05:18:38.813Z,18.31
2022-08-07T05:21:12.610Z,18.30
2022-08-07T05:23:55.787Z,18.24
2022-08-07T05:26:28.126Z,18.22
2022-08-07T05:29:05.020Z,18.11
2022-08-07T05:31:39.579Z,18.19
2022-08-07T05:34:17.197Z,18.30
2022-08-07T05:36:52.726Z,18.31
2022-08-07T05:40:16.532Z,18.52
2022-08-07T05:42:33.613Z,19.30
2022-08-07T05:45:26.157Z,21.13
2022-08-07T05:48:02.466Z,25.04
2022-08-07T05:50:44.574Z,28.36
2022-08-07T05:54:09.541Z,30.86
2022-08-07T05:56:06.755Z,33.13
2022-08-07T05:58:41.975Z,34.63
2022-08-07T06:01:23.539Z,36.18
2022-08-07T06:04:01.035Z,37.58
2022-08-07T06:06:36.104Z,38.77
2022-08-07T06:09:06.708Z,39.81
2022-08-07T06:11:39.798Z,40.78
2022-08-07T06:14:11.546Z,41.01
2022-08-07T06:16:45.777Z,39.67
2022-08-07T06:19:52.318Z,37.27
2022-08-07T06:22:15.470Z,34.74
2022-08-07T06:24:57.892Z,32.59
2022-08-07T06:27:59.834Z,30.93
2022-08-07T06:30:31.783Z,29.39
2022-08-07T06:33:04.819Z,28.17
2022-08-07T06:35:45.261Z,27.25
2022-08-07T06:38:19.323Z,26.41
2022-08-07T06:40:54.253Z,25.72
2022-08-07T06:43:25.002Z,25.21
2022-08-07T06:46:12.181Z,24.63
2022-08-07T06:48:44.701Z,24.18
2022-08-07T06:51:31.295Z,23.87
2022-08-07T06:55:30.063Z,23.55
2022-08-07T06:56:57.231Z,23.17
2022-08-07T07:00:14.657Z,22.80
2022-08-07T07:02:53.608Z,22.55
2022-08-07T07:06:03.948Z,22.46
2022-08-07T07:08:07.175Z,22.33
2022-08-07T07:10:38.935Z,22.25
2022-08-07T07:13:56.672Z,22.10
2022-08-07T07:16:45.427Z,21.88
2022-08-07T07:19:56.513Z,21.84
2022-08-07T07:22:40.011Z,21.70
2022-08-07T07:26:31.168Z,21.58
2022-08-07T07:28:03.066Z,21.65
2022-08-07T07:35:00.730Z,21.87
2022-08-07T07:37:49.501Z,22.04
2022-08-07T07:40:26.144Z,22.17
2022-08-07T07:42:57.544Z,22.36
2022-08-07T07:46:36.868Z,22.49
2022-08-07T07:48:35.412Z,22.61
2022-08-07T07:51:07.997Z,22.65
2022-08-07T07:53:52.631Z,22.66
2022-08-07T07:56:30.005Z,22.65
2022-08-07T07:59:05.927Z,22.68
2022-08-07T08:02:02.212Z,22.67
2022-08-07T08:04:32.498Z,22.66
2022-08-07T08:07:07.619Z,22.66
2022-08-07T08:09:52.586Z,22.72
2022-08-07T08:12:52.476Z,22.86
2022-08-07T08:15:17.567Z,22.98
2022-08-07T08:17:57.097Z,23.02
2022-08-07T08:20:32.348Z,22.99
2022-08-07T08:23:20.778Z,22.97
2022-08-07T08:26:18.805Z,22.98
2022-08-07T08:28:51.631Z,22.95
2022-08-07T08:32:16.751Z,22.91
2022-08-07T08:34:36.523Z,22.87
2022-08-07T08:37:09.965Z,22.91
2022-08-07T08:39:58.447Z,22.98
2022-08-07T08:42:59.010Z,23.03
2022-08-07T08:46:00.848Z,23.14
2022-08-07T08:48:41.918Z,23.16
2022-08-07T08:51:49.473Z,23.12
2022-08-07T08:54:25.590Z,23.02
2022-08-07T08:56:57.740Z,22.96
2022-08-07T08:59:42.154Z,23.00
2022-08-07T09:02:36.754Z,23.14
2022-08-07T09:05:48.672Z,23.41
2022-08-07T09:08:24.406Z,23.60
2022-08-07T09:11:08.258Z,23.70
2022-08-07T09:14:12.017Z,23.69
2022-08-07T09:16:58.185Z,23.38
2022-08-07T09:19:55.173Z,23.15
2022-08-07T09:24:33.016Z,23.07
2022-08-07T09:25:59.156Z,23.10
2022-08-07T09:30:05.650Z,23.12
2022-08-07T09:31:55.171Z,23.30
2022-08-07T09:34:29.839Z,23.39
2022-08-07T09:37:06.619Z,23.49
2022-08-07T09:40:06.596Z,23.69
2022-08-07T09:42:56.205Z,23.82
2022-08-07T09:47:55.665Z,23.80
2022-08-07T09:50:02.458Z,23.67
2022-08-07T09:52:51.777Z,23.52
2022-08-07T09:55:29.426Z,23.45
2022-08-07T09:58:26.214Z,23.43
2022-08-07T10:01:02.090Z,23.49
2022-08-07T10:04:14.425Z,23.68
2022-08-07T10:07:31.713Z,23.76
2022-08-07T10:10:21.272Z,23.80
2022-08-07T10:12:59.190Z,23.85
2022-08-07T10:15:44.537Z,23.80
2022-08-07T10:18:29.607Z,23.71
2022-08-07T10:21:50.392Z,23.52
2022-08-07T10:24:25.990Z,23.36
2022-08-07T10:27:13.341Z,23.36
2022-08-07T10:30:04.354Z,23.39
2022-08-07T10:33:09.232Z,23.45
2022-08-07T10:36:11.398Z,23.61
2022-08-07T10:38:51.139Z,23.76
2022-08-07T10:41:52.893Z,23.91
2022-08-07T10:44:37.806Z,24.10
2022-08-07T10:47:27.215Z,24.29
2022-08-07T10:50:15.037Z,24.42
2022-08-07T10:53:08.929Z,24.58
2022-08-07T10:55:57.464Z,24.57
2022-08-07T10:58:59.608Z,24.45
2022-08-07T11:01:35.141Z,24.41
2022-08-07T11:04:23.334Z,24.33
2022-08-07T11:07:56.926Z,24.21
2022-08-07T11:10:17.763Z,24.13
2022-08-07T11:13:03.068Z,24.04
2022-08-07T11:15:36.199Z,24.07
2022-08-07T11:18:35.631Z,24.11
2022-08-07T11:21:15.656Z,24.07
2022-08-07T11:24:04.602Z,24.06
2022-08-07T11:26:50.032Z,24.08
2022-08-07T11:29:41.745Z,24.04
2022-08-07T11:32:25.385Z,23.98
2022-08-07T11:34:58.908Z,23.85
2022-08-07T11:37:57.952Z,23.74
2022-08-07T11:40:59.735Z,23.60
2022-08-07T11:43:54.327Z,23.58
2022-08-07T11:46:28.098Z,23.58
2022-08-07T11:50:25.223Z,23.55
2022-08-07T11:52:42.187Z,23.62
2022-08-07T11:56:25.568Z,23.79
2022-08-07T11:58:40.962Z,23.97
2022-08-07T12:01:22.177Z,24.05
2022-08-07T12:04:03.874Z,24.07
2022-08-07T12:06:51.590Z,24.18
2022-08-07T12:09:48.997Z,24.30
2022-08-07T12:12:46.896Z,24.48
2022-08-07T12:15:35.881Z,24.56
2022-08-07T12:18:29.903Z,24.54
2022-08-07T12:22:36.211Z,24.50
2022-08-07T12:25:07.771Z,24.53
2022-08-07T12:28:08.979Z,24.45
2022-08-07T12:30:46.694Z,24.40
2022-08-07T12:33:28.470Z,24.30
2022-08-07T12:36:02.294Z,24.24
2022-08-07T12:38:42.927Z,24.25
2022-08-07T12:41:18.428Z,24.33
2022-08-07T12:44:03.525Z,24.47
2022-08-07T12:46:37.290Z,24.64
2022-08-07T12:49:40.112Z,24.73
2022-08-07T12:52:17.904Z,24.88
2022-08-07T12:55:05.165Z,25.01
2022-08-07T12:58:00.461Z,25.08
2022-08-07T13:00:52.533Z,25.14
2022-08-07T13:04:00.559Z,25.31
2022-08-07T13:07:03.159Z,25.37
2022-08-07T13:10:28.361Z,25.45
2022-08-07T13:12:52.371Z,25.63
2022-08-07T13:15:35.150Z,25.66
2022-08-07T13:18:26.471Z,25.57
2022-08-07T13:21:37.146Z,25.44
2022-08-07T13:24:15.984Z,25.35
2022-08-07T13:27:06.713Z,25.27
2022-08-07T13:29:47.837Z,25.16
2022-08-07T13:32:32.611Z,25.09
2022-08-07T13:35:16.082Z,25.02
2022-08-07T13:38:00.919Z,24.97
2022-08-07T13:40:42.488Z,24.93
2022-08-07T13:43:16.194Z,24.90
2022-08-07T13:46:11.893Z,24.88
2022-08-07T13:48:39.043Z,24.85
2022-08-07T13:51:26.995Z,24.86
2022-08-07T13:54:03.502Z,24.84
2022-08-07T13:56:36.149Z,24.83
2022-08-07T13:59:20.070Z,24.86
2022-08-07T14:02:08.147Z,24.90
2022-08-07T14:05:02.147Z,24.97
2022-08-07T14:08:00.628Z,25.15
2022-08-07T14:10:42.376Z,25.34
2022-08-07T14:13:18.146Z,25.50
2022-08-07T14:15:54.463Z,25.66
2022-08-07T14:18:33.216Z,25.79
2022-08-07T14:22:00.921Z,25.83
2022-08-07T14:24:14.172Z,25.80
2022-08-07T14:26:52.223Z,25.72
2022-08-07T14:30:09.434Z,25.69
2022-08-07T14:32:15.082Z,25.70
2022-08-07T14:34:47.295Z,25.68
2022-08-07T14:37:17.861Z,25.61
2022-08-07T14:40:16.470Z,25.61
2022-08-07T14:43:01.424Z,25.57
2022-08-07T14:45:46.590Z,25.58
2022-08-07T14:48:22.233Z,25.57
2022-08-07T14:51:00.464Z,25.54
2022-08-07T14:54:08.824Z,25.55
2022-08-07T14:56:29.580Z,25.57
2022-08-07T14:59:14.083Z,25.56
2022-08-07T15:05:01.768Z,25.58
2022-08-07T15:07:51.229Z,25.49
2022-08-07T15:10:26.545Z,25.33
2022-08-07T15:13:06.419Z,25.22
2022-08-07T15:15:52.202Z,25.16
2022-08-07T15:18:34.915Z,25.19
2022-08-07T15:21:44.288Z,25.16
2022-08-07T15:25:13.546Z,25.20
2022-08-07T15:27:11.262Z,25.27
2022-08-07T15:30:04.836Z,25.32
2022-08-07T15:32:40.026Z,25.38
2022-08-07T15:35:26.633Z,25.45
2022-08-07T15:44:15.256Z,25.31
2022-08-07T15:46:51.790Z,25.18
2022-08-07T15:50:03.733Z,25.05
2022-08-07T15:52:30.538Z,24.92
2022-08-07T15:55:03.912Z,24.88
2022-08-07T15:57:48.504Z,24.75
2022-08-07T16:00:31.216Z,24.62
2022-08-07T16:03:22.043Z,24.53
2022-08-07T16:06:06.663Z,24.45
2022-08-07T16:08:42.711Z,24.39
2022-08-07T16:11:31.470Z,24.31
2022-08-07T16:14:39.120Z,24.20
2022-08-07T16:18:02.553Z,24.13
2022-08-07T16:20:42.526Z,24.10
2022-08-07T16:23:53.458Z,24.05
2022-08-07T16:26:30.480Z,23.94
2022-08-07T16:30:11.033Z,23.83
2022-08-07T16:32:34.940Z,23.67
2022-08-07T16:35:52.403Z,23.54
2022-08-07T16:39:01.424Z,23.45
2022-08-07T16:41:55.836Z,23.34
2022-08-07T16:44:47.547Z,23.25
2022-08-07T16:47:49.651Z,23.15
2022-08-07T16:50:38.915Z,23.03
2022-08-07T16:54:02.567Z,22.96
2022-08-07T16:56:44.226Z,22.86
2022-08-07T16:59:20.647Z,22.83
2022-08-07T17:01:57.467Z,22.75
2022-08-07T17:04:50.993Z,22.71
2022-08-07T17:07:57.920Z,22.64
2022-08-07T17:10:54.220Z,22.57
2022-08-07T17:14:18.340Z,22.54
2022-08-07T17:16:55.850Z,22.47
2022-08-07T17:20:01.896Z,22.41
2022-08-07T17:22:46.471Z,22.38
2022-08-07T17:25:47.485Z,22.31
2022-08-07T17:28:25.405Z,22.24
2022-08-07T17:31:16.465Z,22.18
2022-08-07T17:34:32.702Z,22.12
2022-08-07T17:36:48.984Z,22.07
2022-08-07T17:39:57.883Z,22.02
2022-08-07T17:42:59.472Z,21.97
2022-08-07T17:45:37.201Z,21.90
2022-08-07T17:48:16.838Z,21.86
2022-08-07T17:51:21.476Z,21.78
2022-08-07T17:54:39.570Z,21.72
2022-08-07T17:57:24.031Z,21.65
2022-08-07T18:00:14.254Z,21.60
2022-08-07T18:03:18.168Z,21.52
2022-08-07T18:06:03.726Z,21.47
2022-08-07T18:09:00.647Z,21.43
2022-08-07T18:12:18.116Z,21.38
2022-08-07T18:14:46.113Z,21.31
2022-08-07T18:18:33.045Z,21.25
2022-08-07T18:21:08.044Z,21.18
2022-08-07T18:24:33.163Z,21.11
2022-08-07T18:27:20.908Z,21.05
2022-08-07T18:30:06.736Z,20.98
2022-08-07T18:32:56.195Z,20.94
2022-08-07T18:35:57.223Z,20.89
2022-08-07T18:40:06.589Z,20.84
2022-08-07T18:42:16.726Z,20.78
2022-08-07T18:45:43.596Z,20.71
2022-08-07T18:48:04.924Z,20.64
2022-08-07T18:51:14.906Z,20.57
2022-08-07T18:53:55.465Z,20.48
2022-08-07T18:56:37.645Z,20.37
2022-08-07T18:59:46.821Z,20.29
2022-08-07T19:02:34.454Z,20.18
2022-08-07T19:05:24.738Z,20.09
2022-08-07T19:08:10.811Z,20.02
2022-08-07T19:10:59.319Z,19.96
2022-08-07T19:13:49.977Z,19.93
2022-08-07T19:17:00.747Z,19.88
2022-08-07T19:19:36.253Z,19.80
2022-08-07T19:27:02.029Z,19.66
2022-08-07T19:31:05.816Z,19.59
2022-08-07T19:32:28.968Z,19.55
2022-08-07T19:35:11.076Z,19.50
2022-08-07T19:37:55.268Z,19.45
2022-08-07T19:40:30.902Z,19.41
2022-08-07T19:43:11.015Z,19.38
2022-08-07T19:46:05.357Z,19.34
2022-08-07T19:48:54.566Z,19.29
2022-08-07T19:51:53.126Z,19.26
2022-08-07T19:54:30.888Z,19.23
2022-08-07T19:58:01.761Z,19.19
2022-08-07T20:00:08.923Z,19.16
2022-08-07T20:02:52.121Z,19.13
2022-08-07T20:05:28.137Z,19.09
2022-08-07T20:08:03.907Z,19.04
2022-08-07T20:10:52.154Z,18.99
2022-08-07T20:13:34.337Z,18.91
2022-08-07T20:16:04.677Z,18.87
2022-08-07T20:18:34.494Z,18.82
2022-08-07T20:21:21.045Z,18.77
2022-08-07T20:24:07.411Z,18.74
2022-08-07T20:26:45.870Z,18.71
2022-08-07T20:29:47.109Z,18.67
2022-08-07T20:32:22.889Z,18.65
2022-08-07T20:35:25.258Z,18.65
2022-08-07T20:37:58.852Z,18.59
2022-08-07T20:40:32.298Z,18.56
2022-08-07T20:43:14.918Z,18.57
2022-08-07T20:46:29.014Z,18.59
2022-08-07T20:49:53.868Z,18.57
2022-08-07T20:51:35.937Z,18.53
2022-08-07T20:54:12.227Z,18.47
2022-08-07T20:56:51.676Z,18.42
2022-08-07T21:00:05.245Z,18.37
2022-08-07T21:02:38.370Z,18.31
2022-08-07T21:05:16.350Z,18.27
2022-08-07T21:07:50.301Z,18.22
2022-08-07T21:10:29.448Z,18.19
2022-08-07T21:13:03.518Z,18.16
2022-08-07T21:15:58.434Z,18.12
2022-08-07T21:18:33.518Z,18.09
2022-08-07T21:21:05.284Z,18.07
2022-08-07T21:24:12.362Z,18.04
2022-08-07T21:27:09.851Z,18.04
2022-08-07T21:29:53.067Z,18.04
2022-08-07T21:32:47.866Z,18.04
2022-08-07T21:35:34.557Z,18.01
2022-08-07T21:38:31.056Z,18.01
2022-08-07T21:41:24.526Z,18.01
2022-08-07T21:44:08.209Z,18.03
2022-08-07T21:46:55.563Z,18.05
2022-08-07T21:49:40.625Z,18.03
2022-08-07T21:52:58.324Z,18.05
2022-08-07T21:55:48.441Z,18.06
2022-08-07T21:58:52.227Z,18.03
2022-08-07T22:02:07.188Z,18.00
2022-08-07T22:04:25.620Z,17.96
2022-08-07T22:07:02.084Z,17.94
2022-08-07T22:09:38.054Z,17.93
2022-08-07T22:12:31.527Z,17.88
2022-08-07T22:16:42.456Z,17.83
2022-08-07T22:18:02.263Z,17.77
2022-08-07T22:20:39.921Z,17.76
2022-08-07T22:23:29.241Z,17.75
2022-08-07T22:26:06.142Z,17.73
2022-08-07T22:28:53.918Z,17.70
2022-08-07T22:32:06.018Z,17.67
2022-08-07T22:34:49.717Z,17.58
2022-08-07T22:37:28.135Z,17.56
2022-08-07T22:40:27.732Z,17.53
2022-08-07T22:43:19.357Z,17.50
2022-08-07T22:46:42.727Z,17.46
2022-08-07T22:49:33.975Z,17.40
2022-08-07T22:52:37.143Z,17.35
2022-08-07T22:55:38.928Z,17.34
2022-08-07T22:58:22.170Z,17.32
